createdAt,value
2023-04-08T12:21:18.543Z,7.92
2023-04-08T12:26:29.387Z,7.92
2023-04-08T12:31:38.783Z,7.93
2023-04-08T12:36:48.268Z,7.93
2023-04-08T12:41:59.309Z,7.98
2023-04-08T12:47:09.625Z,7.98
2023-04-08T12:52:18.174Z,8.21
2023-04-08T12:57:26.655Z,8.21
2023-04-08T13:02:36.817Z,7.99
2023-04-08T13:07:44.894Z,7.99
2023-04-08T13:12:53.998Z,8.04
2023-04-08T13:18:02.818Z,8.04
2023-04-08T13:23:12.252Z,8.27
2023-04-08T13:28:22.023Z,8.27
2023-04-08T13:33:30.478Z,8.15
2023-04-08T13:38:40.255Z,8.15
2023-04-08T13:43:49.357Z,8.38
2023-04-08T13:48:59.151Z,8.38
2023-04-08T13:54:07.591Z,8.37
2023-04-08T13:59:16.071Z,8.37
2023-04-08T14:04:26.166Z,8.36
2023-04-08T14:09:34.395Z,8.36
2023-04-08T14:14:42.863Z,8.27
2023-04-08T14:19:52.579Z,8.27
2023-04-08T14:25:02.362Z,8.35
2023-04-08T14:30:12.112Z,8.35
2023-04-08T14:35:21.997Z,8.36
2023-04-08T14:40:30.323Z,8.36
2023-04-08T14:45:39.477Z,8.55
2023-04-08T14:50:48.573Z,8.55
2023-04-08T14:55:57.025Z,8.33
2023-04-08T15:01:05.782Z,8.39
2023-04-08T15:06:13.356Z,8.39
2023-04-08T15:11:21.878Z,8.23
2023-04-08T15:16:32.263Z,8.23
2023-04-08T15:21:41.370Z,8.15
2023-04-08T15:26:51.184Z,8.15
2023-04-08T15:32:00.275Z,8.25
2023-04-08T15:37:08.708Z,8.25
2023-04-08T15:42:17.892Z,8.3
2023-04-08T15:47:26.896Z,8.3
2023-04-08T15:52:35.446Z,8.43
2023-04-08T15:57:45.231Z,8.43
2023-04-08T16:02:55.317Z,8.27
2023-04-08T16:08:02.147Z,8.27
2023-04-08T16:13:12.340Z,8.22
2023-04-08T16:18:21.042Z,8.22
2023-04-08T16:23:29.507Z,8.35
2023-04-08T16:28:39.296Z,8.35
2023-04-08T16:33:47.763Z,8.65
2023-04-08T16:38:57.548Z,8.65
2023-04-08T16:44:06.670Z,8.44
2023-04-08T16:49:19.015Z,8.44
2023-04-08T16:54:24.899Z,8.64
2023-04-08T16:59:34.635Z,8.64
2023-04-08T17:04:44.443Z,8.62
2023-04-08T17:09:52.954Z,8.62
2023-04-08T17:15:02.688Z,8.9
2023-04-08T17:20:12.432Z,8.9
2023-04-08T17:25:21.526Z,9.07
2023-04-08T17:30:30.018Z,9.07
2023-04-08T17:35:39.971Z,9
2023-04-08T17:40:49.575Z,9
2023-04-08T17:45:59.563Z,9.13
2023-04-08T17:51:07.775Z,9.13
2023-04-08T17:56:16.931Z,9.06
2023-04-08T18:01:25.531Z,9.06
2023-04-08T18:06:33.209Z,9.1
2023-04-08T18:11:42.992Z,8.96
2023-04-08T18:16:53.097Z,8.96
2023-04-08T18:22:01.939Z,9.03
2023-04-08T18:27:11.686Z,9.03
2023-04-08T18:32:21.387Z,8.98
2023-04-08T18:37:31.119Z,8.98
2023-04-08T18:42:40.895Z,9.33
2023-04-08T18:47:51.680Z,9.33
2023-04-08T18:52:58.518Z,9.07
2023-04-08T18:58:08.283Z,9.07
2023-04-08T19:03:18.557Z,8.98
2023-04-08T19:08:26.474Z,8.98
2023-04-08T19:13:36.256Z,9.07
2023-04-08T19:18:44.733Z,9.07
2023-04-08T19:23:54.174Z,9.39
2023-04-08T19:29:01.081Z,9.39
2023-04-08T19:34:10.808Z,9.11
2023-04-08T19:39:19.927Z,9.11
2023-04-08T19:44:29.725Z,8.71
2023-04-08T19:49:38.149Z,8.71
2023-04-08T19:54:46.808Z,9.02
2023-04-08T19:59:55.116Z,9.02
2023-04-08T20:05:04.273Z,9.06
2023-04-08T20:10:13.388Z,9.06
2023-04-08T20:15:25.909Z,9.16
2023-04-08T20:20:30.958Z,9.16
2023-04-08T20:25:40.135Z,8.83
2023-04-08T20:30:49.214Z,8.83
2023-04-08T20:35:58.115Z,9.13
2023-04-08T20:41:06.167Z,9.13
2023-04-08T20:46:16.923Z,9.22
2023-04-08T20:51:27.900Z,9.22
2023-04-08T20:56:37.355Z,9.34
2023-04-08T21:01:46.996Z,9.34
2023-04-08T21:06:55.018Z,9.76
2023-04-08T21:12:04.740Z,9.76
2023-04-08T21:17:13.880Z,9.37
2023-04-08T21:22:23.608Z,9.55
2023-04-08T21:27:34.257Z,9.55
2023-04-08T21:32:42.611Z,9.4
2023-04-08T21:37:50.964Z,9.4
2023-04-08T21:43:00.754Z,9.36
2023-04-08T21:48:10.471Z,9.36
2023-04-08T21:53:20.264Z,9.4
2023-04-08T21:58:29.990Z,9.4
2023-04-08T22:03:39.183Z,9.51
2023-04-08T22:08:49.827Z,9.51
2023-04-08T22:13:59.333Z,9.83
2023-04-08T22:19:09.712Z,9.83
2023-04-08T22:24:19.498Z,10.2
2023-04-08T22:29:29.229Z,10.2
2023-04-08T22:34:38.969Z,9.79
2023-04-08T22:39:48.741Z,9.79
2023-04-08T22:44:57.848Z,9.84
2023-04-08T22:50:07.006Z,9.84
2023-04-08T22:55:16.086Z,9.44
2023-04-08T23:00:24.575Z,9.44
2023-04-08T23:05:32.470Z,9.43
2023-04-08T23:10:40.906Z,9.43
2023-04-08T23:15:49.513Z,9.48
2023-04-08T23:20:57.893Z,9.48
2023-04-08T23:26:06.338Z,9.47
2023-04-08T23:31:15.785Z,9.47
2023-04-08T23:36:25.854Z,9.34
2023-04-08T23:41:35.618Z,9.34
2023-04-08T23:46:45.806Z,9.95
2023-04-08T23:51:55.213Z,9.95
2023-04-08T23:57:04.251Z,10.74
